createdAt,value
2023-03-06T00:01:28.887Z,4.13
2023-03-06T00:03:55.184Z,4.63
2023-03-06T00:06:21.604Z,4.63
2023-03-06T00:08:47.823Z,4.40
2023-03-06T00:11:15.473Z,4.03
2023-03-06T00:13:41.712Z,3.87
2023-03-06T00:16:08.791Z,4.03
2023-03-06T00:18:35.050Z,4.50
2023-03-06T00:21:01.354Z,4.23
2023-03-06T00:23:27.764Z,4.00
2023-03-06T00:25:54.024Z,3.97
2023-03-06T00:28:20.272Z,4.30
2023-03-06T00:30:47.647Z,4.00
2023-03-06T00:33:13.976Z,4.17
2023-03-06T00:35:40.402Z,4.20
2023-03-06T00:38:06.788Z,4.10
2023-03-06T00:40:33.209Z,4.67
2023-03-06T00:42:59.477Z,4.47
2023-03-06T00:45:25.734Z,4.60
2023-03-06T00:47:51.996Z,4.70
2023-03-06T00:50:18.294Z,4.57
2023-03-06T00:52:44.536Z,4.50
2023-03-06T00:55:10.849Z,4.40
2023-03-06T00:57:37.240Z,4.50
2023-03-06T01:00:04.040Z,4.10
2023-03-06T01:02:30.328Z,3.97
2023-03-06T01:04:56.653Z,4.53
2023-03-06T01:07:22.976Z,4.23
2023-03-06T01:09:49.267Z,4.17
2023-03-06T01:12:15.761Z,4.30
2023-03-06T01:14:42.042Z,3.73
2023-03-06T01:17:08.310Z,4.20
2023-03-06T01:19:34.513Z,4.40
2023-03-06T01:22:00.742Z,4.43
2023-03-06T01:24:27.032Z,4.27
2023-03-06T01:26:53.258Z,4.63
2023-03-06T01:29:19.723Z,4.57
2023-03-06T01:31:45.989Z,4.53
2023-03-06T01:34:12.316Z,4.33
2023-03-06T01:36:38.664Z,5.03
2023-03-06T01:39:04.957Z,5.60
2023-03-06T01:41:32.654Z,5.27
2023-03-06T01:43:59.096Z,5.40
2023-03-06T01:46:25.325Z,5.50
2023-03-06T01:49:12.007Z,5.17
2023-03-06T01:51:45.090Z,5.83
2023-03-06T01:54:13.277Z,5.60
2023-03-06T01:56:40.860Z,5.73
2023-03-06T01:59:07.326Z,6.10
2023-03-06T02:01:34.117Z,6.33
2023-03-06T02:04:01.047Z,5.90
2023-03-06T02:06:27.332Z,6.40
2023-03-06T02:08:54.197Z,5.87
2023-03-06T02:11:22.555Z,6.40
2023-03-06T02:13:49.552Z,5.77
2023-03-06T02:16:16.230Z,5.93
2023-03-06T02:18:43.824Z,6.13
2023-03-06T02:21:11.597Z,5.90
2023-03-06T02:23:37.827Z,5.70
2023-03-06T02:26:04.949Z,5.43
2023-03-06T02:28:31.259Z,5.70
2023-03-06T02:30:57.530Z,5.50
2023-03-06T02:33:25.175Z,5.53
2023-03-06T02:35:58.402Z,6.00
2023-03-06T02:38:29.297Z,5.67
2023-03-06T02:40:57.952Z,5.53
2023-03-06T02:43:25.980Z,4.70
2023-03-06T02:45:52.345Z,5.30
2023-03-06T02:48:19.037Z,5.87
2023-03-06T02:50:45.577Z,5.07
2023-03-06T02:53:12.874Z,5.07
2023-03-06T02:55:39.427Z,4.70
2023-03-06T02:58:05.947Z,5.23
2023-03-06T03:00:32.728Z,4.77
2023-03-06T03:02:58.991Z,5.20
2023-03-06T03:05:25.241Z,5.10
2023-03-06T03:07:51.456Z,4.47
2023-03-06T03:10:17.803Z,4.47
2023-03-06T03:12:44.059Z,4.00
2023-03-06T03:15:10.553Z,3.87
2023-03-06T03:17:37.267Z,3.93
2023-03-06T03:20:04.669Z,4.07
2023-03-06T03:22:31.006Z,3.87
2023-03-06T03:24:57.335Z,3.80
2023-03-06T03:27:23.645Z,3.37
2023-03-06T03:29:49.941Z,3.57
2023-03-06T03:32:16.207Z,3.30
2023-03-06T03:34:42.460Z,3.33
2023-03-06T03:37:09.206Z,3.57
2023-03-06T03:39:35.595Z,3.63
2023-03-06T03:42:01.810Z,3.70
2023-03-06T03:44:28.109Z,3.57
2023-03-06T03:46:54.341Z,3.77
2023-03-06T03:49:20.630Z,3.17
2023-03-06T03:51:47.874Z,3.27
2023-03-06T03:54:14.135Z,3.33
2023-03-06T03:56:41.809Z,3.27
2023-03-06T03:59:08.563Z,3.43
2023-03-06T04:01:34.816Z,3.63
2023-03-06T04:04:01.101Z,3.33
2023-03-06T04:06:27.660Z,3.10
2023-03-06T04:08:53.880Z,3.20
2023-03-06T04:11:20.165Z,3.40
2023-03-06T04:13:46.762Z,3.47
2023-03-06T04:16:13.020Z,3.27
2023-03-06T04:18:39.350Z,3.40
2023-03-06T04:21:05.766Z,2.80
2023-03-06T04:23:32.028Z,2.50
2023-03-06T04:25:58.400Z,2.53
2023-03-06T04:28:24.906Z,2.57
2023-03-06T04:30:51.612Z,1.83
2023-03-06T04:33:18.157Z,2.00
2023-03-06T04:35:44.452Z,1.90
2023-03-06T04:38:10.715Z,2.20
2023-03-06T04:40:37.019Z,2.00
2023-03-06T04:43:04.463Z,2.47
2023-03-06T04:45:31.292Z,1.67
2023-03-06T04:47:58.012Z,1.90
2023-03-06T04:50:25.329Z,1.57
2023-03-06T04:52:51.875Z,2.00
2023-03-06T04:55:18.560Z,1.80
2023-03-06T04:57:46.116Z,1.60
2023-03-06T05:00:14.029Z,2.03
2023-03-06T05:02:41.896Z,2.00
2023-03-06T05:05:08.232Z,1.90
2023-03-06T05:07:34.444Z,2.00
2023-03-06T05:10:00.762Z,2.13
2023-03-06T05:12:26.989Z,2.00
2023-03-06T05:14:53.212Z,1.87
2023-03-06T05:17:19.464Z,2.07
2023-03-06T05:19:45.693Z,1.80
2023-03-06T05:22:11.968Z,1.80
2023-03-06T05:24:38.210Z,1.93
2023-03-06T05:27:04.462Z,2.13
2023-03-06T05:29:30.692Z,2.10
2023-03-06T05:31:56.945Z,1.70
2023-03-06T05:34:23.192Z,1.90
2023-03-06T05:36:49.511Z,2.10
2023-03-06T05:39:15.849Z,1.73
2023-03-06T05:41:42.081Z,1.77
2023-03-06T05:44:08.312Z,1.90
2023-03-06T05:46:34.543Z,2.20
2023-03-06T05:49:00.770Z,1.87
2023-03-06T05:51:27.025Z,1.93
2023-03-06T05:53:53.330Z,1.80
2023-03-06T05:56:21.694Z,2.00
2023-03-06T05:58:48.325Z,1.90
2023-03-06T06:01:15.904Z,1.60
2023-03-06T06:03:42.241Z,1.97
2023-03-06T06:06:09.273Z,2.10
2023-03-06T06:08:35.506Z,1.97
2023-03-06T06:11:01.728Z,1.67
2023-03-06T06:13:27.965Z,2.20
2023-03-06T06:15:54.319Z,1.80
2023-03-06T06:18:20.654Z,2.20
2023-03-06T06:20:46.874Z,2.00
2023-03-06T06:23:13.326Z,2.00
2023-03-06T06:25:39.765Z,2.30
2023-03-06T06:28:06.234Z,2.20
2023-03-06T06:30:33.157Z,2.30
2023-03-06T06:32:59.439Z,1.97
2023-03-06T06:35:26.192Z,2.20
2023-03-06T06:37:52.711Z,2.17
2023-03-06T06:40:19.060Z,2.20
2023-03-06T06:42:46.553Z,2.53
2023-03-06T06:45:12.865Z,2.40
2023-03-06T06:47:41.376Z,2.73
2023-03-06T06:50:10.517Z,2.60
2023-03-06T06:52:36.745Z,2.40
2023-03-06T06:55:03.009Z,2.80
2023-03-06T06:57:29.285Z,2.40
2023-03-06T06:59:55.502Z,2.30
2023-03-06T07:02:21.848Z,2.60
2023-03-06T07:05:02.516Z,2.83
2023-03-06T07:07:30.797Z,2.40
2023-03-06T07:09:57.037Z,3.10
2023-03-06T07:12:23.298Z,2.57
2023-03-06T07:14:49.528Z,2.33
2023-03-06T07:17:15.791Z,2.43
2023-03-06T07:19:42.018Z,2.40
2023-03-06T07:22:08.299Z,2.10
2023-03-06T07:24:34.795Z,2.47
2023-03-06T07:27:01.001Z,2.90
2023-03-06T07:29:27.300Z,2.30
2023-03-06T07:31:53.604Z,2.33
2023-03-06T07:34:19.912Z,2.10
2023-03-06T07:36:46.191Z,2.57
2023-03-06T07:39:12.449Z,2.67
2023-03-06T07:41:38.690Z,2.50
2023-03-06T07:44:04.960Z,2.33
2023-03-06T07:46:31.280Z,2.97
2023-03-06T07:48:58.222Z,2.43
2023-03-06T07:51:24.486Z,2.73
2023-03-06T07:53:50.729Z,2.70
2023-03-06T07:56:16.959Z,2.40
2023-03-06T07:58:44.511Z,2.70
2023-03-06T08:01:12.724Z,2.80
2023-03-06T08:03:39.298Z,3.07
2023-03-06T08:06:10.056Z,2.60
2023-03-06T08:08:37.698Z,2.60
2023-03-06T08:11:04.024Z,4.80
2023-03-06T08:13:30.255Z,4.00
2023-03-06T08:15:56.769Z,2.60
2023-03-06T08:18:23.117Z,2.33
2023-03-06T08:20:49.370Z,2.60
2023-03-06T08:23:15.642Z,2.07
2023-03-06T08:25:41.957Z,1.70
2023-03-06T08:28:08.164Z,2.00
2023-03-06T08:30:34.448Z,1.50
2023-03-06T08:33:01.278Z,2.10
2023-03-06T08:35:27.606Z,1.80
2023-03-06T08:37:53.863Z,1.80
2023-03-06T08:40:20.140Z,2.40
2023-03-06T08:42:47.632Z,2.40
2023-03-06T08:45:13.844Z,2.17
2023-03-06T08:47:40.109Z,1.97
2023-03-06T08:50:07.368Z,2.70
2023-03-06T08:52:33.625Z,2.10
2023-03-06T08:55:03.392Z,2.00
2023-03-06T08:57:29.802Z,2.00
2023-03-06T08:59:56.168Z,2.37
2023-03-06T09:02:22.510Z,2.20
2023-03-06T09:04:48.770Z,2.17
2023-03-06T09:07:15.077Z,2.23
2023-03-06T09:09:41.384Z,2.40
2023-03-06T09:12:07.633Z,1.80
2023-03-06T09:14:33.917Z,2.13
2023-03-06T09:17:00.182Z,2.10
2023-03-06T09:19:26.484Z,1.90
2023-03-06T09:21:53.932Z,1.80
2023-03-06T09:24:20.200Z,1.47
2023-03-06T09:26:48.037Z,1.70
2023-03-06T09:29:17.045Z,1.67
2023-03-06T09:31:43.649Z,2.20
2023-03-06T09:34:10.056Z,2.10
2023-03-06T09:36:53.357Z,1.77
2023-03-06T09:39:21.720Z,2.00
2023-03-06T09:41:49.503Z,1.67
2023-03-06T09:44:18.572Z,1.80
2023-03-06T09:47:02.860Z,1.70
2023-03-06T09:49:47.944Z,1.80
2023-03-06T09:52:14.140Z,1.53
2023-03-06T09:54:44.276Z,1.63
2023-03-06T09:57:25.041Z,5.40
2023-03-06T09:59:54.300Z,2.33
2023-03-06T10:02:24.727Z,1.80
2023-03-06T10:04:54.382Z,1.37
2023-03-06T10:07:36.244Z,1.43
2023-03-06T10:10:06.556Z,1.70
2023-03-06T10:23:41.509Z,1.60
2023-03-06T10:26:16.340Z,1.00
2023-03-06T10:28:46.976Z,1.80
2023-03-06T10:31:22.345Z,1.07
2023-03-06T10:33:48.660Z,1.50
2023-03-06T10:36:16.345Z,1.50
2023-03-06T10:38:43.145Z,1.20
2023-03-06T10:41:12.215Z,1.30
2023-03-06T10:43:40.205Z,1.17
2023-03-06T10:46:08.436Z,1.20
2023-03-06T10:48:40.740Z,1.40
2023-03-06T10:51:24.117Z,1.20
2023-03-06T10:53:55.077Z,0.90
2023-03-06T10:56:38.094Z,1.47
2023-03-06T10:59:05.804Z,1.30
2023-03-06T11:01:32.068Z,1.40
2023-03-06T11:04:16.935Z,1.20
2023-03-06T11:06:43.274Z,1.70
2023-03-06T11:09:18.463Z,1.27
2023-03-06T11:11:44.720Z,1.20
2023-03-06T11:14:15.546Z,1.10
2023-03-06T11:16:51.914Z,1.20
2023-03-06T11:19:27.169Z,1.23
2023-03-06T11:22:01.527Z,1.00
2023-03-06T11:24:33.430Z,1.00
2023-03-06T11:27:01.999Z,1.03
2023-03-06T11:29:38.546Z,1.00
2023-03-06T11:32:10.911Z,0.80
2023-03-06T11:34:44.394Z,1.03
2023-03-06T11:37:36.780Z,1.03
2023-03-06T11:40:06.400Z,1.10
2023-03-06T11:42:37.653Z,1.00
2023-03-06T11:45:19.190Z,1.27
2023-03-06T11:48:04.366Z,1.07
2023-03-06T11:50:35.434Z,1.10
2023-03-06T11:53:06.150Z,1.30
2023-03-06T11:55:39.317Z,1.53
2023-03-06T11:58:11.405Z,1.67
2023-03-06T12:00:43.879Z,1.70
2023-03-06T12:03:38.908Z,0.90
2023-03-06T12:06:08.058Z,1.20
2023-03-06T12:08:34.273Z,1.13
2023-03-06T12:11:00.530Z,1.70
2023-03-06T12:13:36.413Z,1.90
2023-03-06T12:16:05.739Z,1.20
2023-03-06T12:18:37.499Z,1.80
2023-03-06T12:21:22.558Z,1.20
2023-03-06T12:23:51.783Z,1.17
2023-03-06T12:26:35.449Z,1.33
2023-03-06T12:29:09.618Z,1.57
2023-03-06T12:31:42.364Z,4.93
2023-03-06T12:34:13.964Z,2.80
2023-03-06T12:36:52.613Z,1.53
2023-03-06T12:39:21.958Z,1.40
2023-03-06T12:41:58.883Z,2.70
2023-03-06T12:44:39.527Z,2.10
2023-03-06T12:47:10.807Z,2.27
2023-03-06T12:49:39.874Z,1.30
2023-03-06T12:52:07.433Z,1.77
2023-03-06T12:54:35.990Z,1.50
2023-03-06T12:57:02.329Z,1.50
2023-03-06T12:59:39.313Z,1.30
2023-03-06T13:02:18.256Z,1.40
2023-03-06T13:04:49.095Z,1.10
2023-03-06T13:07:36.505Z,1.27
2023-03-06T13:10:07.678Z,1.37
2023-03-06T13:12:50.469Z,1.40
2023-03-06T13:15:31.804Z,1.50
2023-03-06T13:17:58.172Z,1.30
2023-03-06T13:20:35.107Z,1.93
2023-03-06T13:23:20.600Z,1.60
2023-03-06T13:25:48.085Z,1.50
2023-03-06T13:28:22.684Z,1.30
2023-03-06T13:30:50.437Z,1.27
2023-03-06T13:33:33.071Z,1.50
2023-03-06T13:36:00.406Z,1.70
2023-03-06T13:38:29.752Z,1.40
2023-03-06T13:41:14.800Z,1.20
2023-03-06T13:43:43.508Z,1.37
2023-03-06T13:46:24.806Z,1.47
2023-03-06T13:49:03.131Z,1.67
2023-03-06T13:51:33.243Z,1.40
2023-03-06T13:54:17.567Z,1.37
2023-03-06T13:56:53.217Z,1.40
2023-03-06T13:59:34.248Z,1.33
2023-03-06T14:02:15.855Z,1.30
2023-03-06T14:05:01.345Z,1.20
2023-03-06T14:07:35.682Z,1.40
2023-03-06T14:10:14.206Z,1.43
2023-03-06T14:12:41.922Z,1.20
2023-03-06T14:15:14.312Z,1.40
2023-03-06T14:17:47.470Z,1.37
2023-03-06T14:20:17.988Z,1.77
2023-03-06T14:22:44.227Z,1.37
2023-03-06T14:25:23.941Z,1.40
2023-03-06T14:27:52.546Z,1.10
2023-03-06T14:30:25.302Z,1.50
2023-03-06T14:32:53.548Z,1.37
2023-03-06T14:35:25.993Z,1.20
2023-03-06T14:37:53.585Z,1.80
2023-03-06T14:40:27.640Z,1.40
2023-03-06T14:43:12.929Z,1.63
2023-03-06T14:45:48.586Z,1.60
2023-03-06T14:48:15.992Z,1.70
2023-03-06T14:50:47.126Z,1.70
2023-03-06T14:53:18.430Z,1.60
2023-03-06T14:55:55.944Z,1.53
2023-03-06T14:58:30.424Z,1.43
2023-03-06T15:00:58.738Z,1.50
2023-03-06T15:03:27.807Z,1.40
2023-03-06T15:05:54.822Z,1.13
2023-03-06T15:08:24.931Z,1.13
2023-03-06T15:10:55.665Z,1.40
2023-03-06T15:13:23.146Z,1.50
2023-03-06T15:16:15.658Z,1.00
2023-03-06T15:18:56.015Z,1.27
2023-03-06T15:21:23.515Z,1.40
2023-03-06T15:23:50.757Z,1.20
2023-03-06T15:26:28.698Z,1.27
2023-03-06T15:29:00.016Z,1.30
2023-03-06T15:31:33.274Z,1.50
2023-03-06T15:34:23.264Z,1.17
2023-03-06T15:36:56.541Z,0.90
2023-03-06T15:39:33.811Z,1.17
2023-03-06T15:42:01.150Z,1.27
2023-03-06T15:44:28.879Z,1.40
2023-03-06T15:47:07.729Z,1.30
2023-03-06T15:49:36.384Z,1.17
2023-03-06T15:52:02.627Z,1.10
2023-03-06T15:54:29.129Z,1.47
2023-03-06T15:56:55.954Z,1.93
2023-03-06T15:59:24.490Z,1.50
2023-03-06T16:01:51.322Z,1.20
2023-03-06T16:04:18.187Z,1.60
2023-03-06T16:06:45.834Z,1.67
2023-03-06T16:09:12.747Z,1.80
2023-03-06T16:11:44.043Z,2.60
2023-03-06T16:14:16.222Z,2.60
2023-03-06T16:16:42.508Z,1.50
2023-03-06T16:19:25.311Z,1.30
2023-03-06T16:21:52.502Z,1.53
2023-03-06T16:24:18.738Z,1.13
2023-03-06T16:26:46.491Z,1.83
2023-03-06T16:29:20.010Z,1.33
2023-03-06T16:31:46.536Z,1.53
2023-03-06T16:34:13.060Z,1.70
2023-03-06T16:36:39.929Z,1.53
2023-03-06T16:39:06.427Z,1.50
2023-03-06T16:41:32.705Z,1.60
2023-03-06T16:43:58.965Z,1.80
2023-03-06T16:46:25.519Z,1.17
2023-03-06T16:48:52.598Z,1.40
2023-03-06T16:51:20.101Z,1.70
2023-03-06T16:53:46.565Z,1.50
2023-03-06T16:56:16.656Z,1.53
2023-03-06T16:58:43.128Z,1.60
2023-03-06T17:01:10.259Z,1.70
2023-03-06T17:03:36.629Z,1.57
2023-03-06T17:06:03.709Z,1.60
2023-03-06T17:08:30.018Z,1.87
2023-03-06T17:10:56.249Z,1.77
2023-03-06T17:13:22.476Z,1.73
2023-03-06T17:15:56.378Z,1.90
2023-03-06T17:18:24.317Z,1.90
2023-03-06T17:20:51.431Z,2.10
2023-03-06T17:23:18.360Z,2.27
2023-03-06T17:25:44.576Z,2.17
2023-03-06T17:28:10.878Z,2.10
2023-03-06T17:30:37.109Z,2.20
2023-03-06T17:33:03.500Z,2.27
2023-03-06T17:35:29.844Z,2.53
2023-03-06T17:37:56.916Z,2.40
2023-03-06T17:40:23.334Z,2.77
2023-03-06T17:42:50.786Z,2.57
2023-03-06T17:45:17.190Z,3.27
2023-03-06T17:47:43.437Z,2.70
2023-03-06T17:50:10.036Z,2.93
2023-03-06T17:52:37.344Z,2.60
2023-03-06T17:55:03.674Z,2.97
2023-03-06T17:57:29.966Z,3.23
2023-03-06T17:59:57.008Z,3.70
2023-03-06T18:02:23.255Z,3.57
2023-03-06T18:04:49.505Z,3.83
2023-03-06T18:07:16.112Z,4.07
2023-03-06T18:09:42.999Z,3.90
2023-03-06T18:12:09.289Z,4.10
2023-03-06T18:14:36.973Z,4.63
2023-03-06T18:17:03.614Z,4.27
2023-03-06T18:19:29.858Z,4.60
2023-03-06T18:21:56.092Z,4.63
2023-03-06T18:24:22.370Z,4.80
2023-03-06T18:26:48.753Z,4.90
2023-03-06T18:29:14.994Z,5.70
2023-03-06T18:31:42.220Z,5.30
2023-03-06T18:34:10.856Z,5.63
2023-03-06T18:36:37.380Z,6.03
2023-03-06T18:39:05.905Z,5.87
2023-03-06T18:41:32.147Z,5.90
2023-03-06T18:43:59.232Z,6.40
2023-03-06T18:46:26.037Z,6.30
2023-03-06T18:48:52.321Z,6.43
2023-03-06T18:51:20.086Z,6.53
2023-03-06T18:53:46.483Z,6.57
2023-03-06T18:56:16.595Z,6.63
2023-03-06T18:58:43.431Z,6.43
2023-03-06T19:01:09.992Z,6.73
2023-03-06T19:03:36.336Z,6.87
2023-03-06T19:06:07.409Z,6.27
2023-03-06T19:08:34.238Z,7.30
2023-03-06T19:11:04.742Z,6.40
2023-03-06T19:13:31.072Z,6.77
2023-03-06T19:15:57.350Z,7.30
2023-03-06T19:18:24.520Z,7.00
2023-03-06T19:20:50.755Z,7.13
2023-03-06T19:23:16.993Z,7.90
2023-03-06T19:25:43.219Z,6.67
2023-03-06T19:28:09.502Z,6.97
2023-03-06T19:30:39.320Z,6.90
2023-03-06T19:33:05.559Z,7.20
2023-03-06T19:35:31.813Z,7.57
2023-03-06T19:37:58.040Z,6.83
2023-03-06T19:40:24.284Z,7.17
2023-03-06T19:42:50.780Z,7.53
2023-03-06T19:45:17.106Z,7.23
2023-03-06T19:47:43.366Z,7.20
2023-03-06T19:50:09.914Z,6.40
2023-03-06T19:52:38.267Z,7.37
2023-03-06T19:55:04.818Z,6.87
2023-03-06T19:57:31.106Z,6.97
2023-03-06T19:59:58.661Z,7.93
2023-03-06T20:02:27.136Z,10.53
2023-03-06T20:04:53.904Z,10.57
2023-03-06T20:07:20.571Z,8.57
2023-03-06T20:09:48.119Z,8.97
2023-03-06T20:12:14.800Z,10.90
2023-03-06T20:14:41.374Z,9.00
2023-03-06T20:17:07.952Z,9.03
2023-03-06T20:19:34.803Z,11.23
2023-03-06T20:22:01.049Z,9.63
2023-03-06T20:24:27.706Z,8.10
2023-03-06T20:26:57.415Z,8.50
2023-03-06T20:29:24.370Z,9.07
2023-03-06T20:31:52.799Z,9.93
2023-03-06T20:34:19.036Z,9.30
2023-03-06T20:36:45.476Z,7.00
2023-03-06T20:39:13.251Z,8.00
2023-03-06T20:41:39.660Z,7.37
2023-03-06T20:44:07.015Z,8.00
2023-03-06T20:46:33.336Z,6.37
2023-03-06T20:48:59.992Z,7.73
2023-03-06T20:51:28.927Z,7.80
2023-03-06T20:53:55.555Z,7.67
2023-03-06T20:56:23.700Z,7.87
2023-03-06T20:58:50.515Z,8.07
2023-03-06T21:01:24.223Z,6.83
2023-03-06T21:03:50.894Z,7.33
2023-03-06T21:06:17.448Z,6.73
2023-03-06T21:08:43.698Z,6.77
2023-03-06T21:11:09.972Z,7.23
2023-03-06T21:13:36.217Z,6.53
2023-03-06T21:16:05.728Z,6.57
2023-03-06T21:18:32.192Z,6.90
2023-03-06T21:20:58.713Z,6.93
2023-03-06T21:23:24.981Z,6.43
2023-03-06T21:25:51.998Z,5.83
2023-03-06T21:28:18.692Z,6.50
2023-03-06T21:30:45.746Z,6.33
2023-03-06T21:33:12.903Z,6.17
2023-03-06T21:35:40.643Z,5.57
2023-03-06T21:38:07.355Z,6.10
2023-03-06T21:40:34.120Z,6.10
2023-03-06T21:43:00.662Z,5.40
2023-03-06T21:45:30.101Z,5.87
2023-03-06T21:47:57.150Z,5.73
2023-03-06T21:50:23.873Z,6.10
2023-03-06T21:52:50.576Z,5.80
2023-03-06T21:55:16.946Z,5.83
2023-03-06T21:57:43.672Z,6.13
2023-03-06T22:00:14.634Z,6.00
2023-03-06T22:02:40.982Z,5.93
2023-03-06T22:05:07.443Z,5.43
2023-03-06T22:07:36.906Z,5.93
2023-03-06T22:10:03.992Z,6.07
2023-03-06T22:12:30.280Z,5.77
2023-03-06T22:14:56.722Z,6.47
2023-03-06T22:17:23.009Z,6.53
2023-03-06T22:19:49.509Z,6.20
2023-03-06T22:22:16.282Z,5.90
2023-03-06T22:24:42.553Z,6.90
2023-03-06T22:27:08.841Z,6.60
2023-03-06T22:29:35.155Z,6.07
2023-03-06T22:32:01.499Z,7.10
2023-03-06T22:34:27.865Z,6.47
2023-03-06T22:36:54.419Z,6.53
2023-03-06T22:39:20.646Z,6.50
2023-03-06T22:41:47.156Z,6.97
2023-03-06T22:44:17.740Z,5.83
2023-03-06T22:46:44.312Z,6.47
2023-03-06T22:49:11.446Z,5.90
2023-03-06T22:51:37.983Z,5.97
2023-03-06T22:54:04.745Z,6.37
2023-03-06T22:56:31.106Z,5.63
2023-03-06T22:58:57.880Z,6.93
2023-03-06T23:01:28.741Z,5.50
2023-03-06T23:03:55.932Z,5.30
2023-03-06T23:06:32.723Z,6.27
2023-03-06T23:09:01.079Z,5.67
2023-03-06T23:11:28.524Z,5.70
2023-03-06T23:13:54.887Z,5.80
2023-03-06T23:16:21.153Z,6.53
2023-03-06T23:18:47.395Z,6.60
2023-03-06T23:21:15.876Z,6.50
2023-03-06T23:23:44.063Z,7.10
2023-03-06T23:26:13.383Z,6.80
2023-03-06T23:28:40.282Z,7.00
2023-03-06T23:31:10.631Z,7.50
2023-03-06T23:33:38.695Z,6.57
2023-03-06T23:36:06.356Z,6.90
2023-03-06T23:38:32.905Z,7.57
2023-03-06T23:41:03.068Z,7.40
2023-03-06T23:43:29.371Z,6.83
2023-03-06T23:45:55.713Z,7.37
2023-03-06T23:48:21.961Z,7.20
2023-03-06T23:50:48.473Z,7.27
2023-03-06T23:53:15.152Z,6.67
2023-03-06T23:55:41.849Z,6.73
2023-03-06T23:58:08.451Z,7.47
